sensor_id;sensor_type;location;lat;lon;timestamp;P1;durP1;ratioP1;P2;durP2;ratioP2
34433;SDS011;34290;48.562;13.384;2023-01-29T00:01:33;35.67;;;14.27;;
34433;SDS011;34290;48.562;13.384;2023-01-29T00:04:00;36.03;;;14.40;;
34433;SDS011;34290;48.562;13.384;2023-01-29T00:06:27;34.17;;;13.70;;
34433;SDS011;34290;48.562;13.384;2023-01-29T00:08:56;30.40;;;13.70;;
34433;SDS011;34290;48.562;13.384;2023-01-29T00:11:23;38.97;;;15.10;;
34433;SDS011;34290;48.562;13.384;2023-01-29T00:13:50;35.73;;;14.17;;
34433;SDS011;34290;48.562;13.384;2023-01-29T00:16:17;32.67;;;13.70;;
34433;SDS011;34290;48.562;13.384;2023-01-29T00:18:45;35.27;;;14.17;;
34433;SDS011;34290;48.562;13.384;2023-01-29T00:21:12;32.27;;;13.47;;
34433;SDS011;34290;48.562;13.384;2023-01-29T00:23:40;31.30;;;13.67;;
34433;SDS011;34290;48.562;13.384;2023-01-29T00:26:09;30.33;;;12.60;;
34433;SDS011;34290;48.562;13.384;2023-01-29T00:28:37;29.17;;;12.37;;
34433;SDS011;34290;48.562;13.384;2023-01-29T00:31:07;31.50;;;12.93;;
34433;SDS011;34290;48.562;13.384;2023-01-29T00:33:35;28.37;;;12.20;;
34433;SDS011;34290;48.562;13.384;2023-01-29T00:36:02;32.60;;;13.40;;
34433;SDS011;34290;48.562;13.384;2023-01-29T00:38:29;29.03;;;12.97;;
34433;SDS011;34290;48.562;13.384;2023-01-29T00:40:57;28.37;;;12.70;;
34433;SDS011;34290;48.562;13.384;2023-01-29T00:43:48;28.10;;;11.67;;
34433;SDS011;34290;48.562;13.384;2023-01-29T00:46:32;31.23;;;12.50;;
34433;SDS011;34290;48.562;13.384;2023-01-29T00:48:59;28.13;;;12.90;;
34433;SDS011;34290;48.562;13.384;2023-01-29T00:51:26;33.67;;;13.63;;
34433;SDS011;34290;48.562;13.384;2023-01-29T00:53:53;30.03;;;13.00;;
34433;SDS011;34290;48.562;13.384;2023-01-29T00:56:22;34.53;;;13.73;;
34433;SDS011;34290;48.562;13.384;2023-01-29T00:58:50;32.20;;;13.53;;
34433;SDS011;34290;48.562;13.384;2023-01-29T01:01:18;29.83;;;12.93;;
34433;SDS011;34290;48.562;13.384;2023-01-29T01:04:05;33.87;;;14.30;;
34433;SDS011;34290;48.562;13.384;2023-01-29T01:06:31;34.03;;;15.00;;
34433;SDS011;34290;48.562;13.384;2023-01-29T01:08:58;36.10;;;14.23;;
34433;SDS011;34290;48.562;13.384;2023-01-29T01:11:43;32.80;;;13.70;;
34433;SDS011;34290;48.562;13.384;2023-01-29T01:14:11;32.03;;;14.27;;
34433;SDS011;34290;48.562;13.384;2023-01-29T01:16:38;32.50;;;13.93;;
34433;SDS011;34290;48.562;13.384;2023-01-29T01:19:05;35.43;;;14.07;;
34433;SDS011;34290;48.562;13.384;2023-01-29T01:21:32;34.37;;;13.13;;
34433;SDS011;34290;48.562;13.384;2023-01-29T01:23:59;31.43;;;13.03;;
34433;SDS011;34290;48.562;13.384;2023-01-29T01:26:26;35.37;;;13.13;;
34433;SDS011;34290;48.562;13.384;2023-01-29T01:28:53;32.00;;;12.57;;
34433;SDS011;34290;48.562;13.384;2023-01-29T01:31:21;27.40;;;11.73;;
34433;SDS011;34290;48.562;13.384;2023-01-29T01:33:48;26.97;;;12.23;;
34433;SDS011;34290;48.562;13.384;2023-01-29T01:36:15;29.50;;;11.93;;
34433;SDS011;34290;48.562;13.384;2023-01-29T01:38:43;29.20;;;11.93;;
34433;SDS011;34290;48.562;13.384;2023-01-29T01:41:10;28.33;;;12.27;;
34433;SDS011;34290;48.562;13.384;2023-01-29T01:43:47;32.20;;;12.77;;
34433;SDS011;34290;48.562;13.384;2023-01-29T01:46:15;25.50;;;11.30;;
34433;SDS011;34290;48.562;13.384;2023-01-29T01:48:43;29.33;;;11.60;;
34433;SDS011;34290;48.562;13.384;2023-01-29T01:51:13;25.93;;;10.83;;
34433;SDS011;34290;48.562;13.384;2023-01-29T01:53:42;25.53;;;10.87;;
34433;SDS011;34290;48.562;13.384;2023-01-29T01:56:16;24.47;;;10.27;;
34433;SDS011;34290;48.562;13.384;2023-01-29T01:58:48;26.03;;;10.47;;
34433;SDS011;34290;48.562;13.384;2023-01-29T02:01:17;25.90;;;10.53;;
34433;SDS011;34290;48.562;13.384;2023-01-29T02:03:53;26.03;;;10.73;;
34433;SDS011;34290;48.562;13.384;2023-01-29T02:06:41;27.00;;;11.03;;
34433;SDS011;34290;48.562;13.384;2023-01-29T02:09:26;22.90;;;9.70;;
34433;SDS011;34290;48.562;13.384;2023-01-29T02:12:03;27.67;;;10.53;;
34433;SDS011;34290;48.562;13.384;2023-01-29T02:14:32;26.03;;;10.40;;
34433;SDS011;34290;48.562;13.384;2023-01-29T02:17:02;26.60;;;10.93;;
34433;SDS011;34290;48.562;13.384;2023-01-29T02:19:35;25.43;;;10.60;;
34433;SDS011;34290;48.562;13.384;2023-01-29T02:22:15;25.20;;;10.37;;
34433;SDS011;34290;48.562;13.384;2023-01-29T02:25:01;25.70;;;10.43;;
34433;SDS011;34290;48.562;13.384;2023-01-29T02:28:00;23.97;;;9.80;;
34433;SDS011;34290;48.562;13.384;2023-01-29T02:30:42;27.07;;;10.83;;
34433;SDS011;34290;48.562;13.384;2023-01-29T02:33:17;24.70;;;10.10;;
34433;SDS011;34290;48.562;13.384;2023-01-29T02:35:52;23.63;;;9.97;;
34433;SDS011;34290;48.562;13.384;2023-01-29T02:38:25;25.97;;;10.27;;
34433;SDS011;34290;48.562;13.384;2023-01-29T02:41:00;21.83;;;9.70;;
34433;SDS011;34290;48.562;13.384;2023-01-29T02:43:36;27.63;;;10.50;;
34433;SDS011;34290;48.562;13.384;2023-01-29T02:46:10;29.03;;;12.03;;
34433;SDS011;34290;48.562;13.384;2023-01-29T02:48:44;26.20;;;10.93;;
34433;SDS011;34290;48.562;13.384;2023-01-29T02:51:20;24.43;;;10.80;;
34433;SDS011;34290;48.562;13.384;2023-01-29T02:53:53;27.13;;;11.07;;
34433;SDS011;34290;48.562;13.384;2023-01-29T02:56:26;24.40;;;10.60;;
34433;SDS011;34290;48.562;13.384;2023-01-29T02:59:00;23.27;;;10.43;;
34433;SDS011;34290;48.562;13.384;2023-01-29T03:01:34;26.83;;;10.37;;
34433;SDS011;34290;48.562;13.384;2023-01-29T03:04:05;21.43;;;10.43;;
34433;SDS011;34290;48.562;13.384;2023-01-29T03:06:36;24.77;;;11.03;;
34433;SDS011;34290;48.562;13.384;2023-01-29T03:09:08;26.97;;;11.03;;
34433;SDS011;34290;48.562;13.384;2023-01-29T03:11:39;27.07;;;11.20;;
34433;SDS011;34290;48.562;13.384;2023-01-29T03:14:13;23.57;;;10.60;;
34433;SDS011;34290;48.562;13.384;2023-01-29T03:16:44;28.60;;;11.17;;
34433;SDS011;34290;48.562;13.384;2023-01-29T03:19:16;27.67;;;10.90;;
34433;SDS011;34290;48.562;13.384;2023-01-29T03:21:47;26.13;;;10.97;;
34433;SDS011;34290;48.562;13.384;2023-01-29T03:24:24;27.63;;;11.80;;
34433;SDS011;34290;48.562;13.384;2023-01-29T03:27:15;26.63;;;10.97;;
34433;SDS011;34290;48.562;13.384;2023-01-29T03:30:04;27.07;;;10.63;;
34433;SDS011;34290;48.562;13.384;2023-01-29T03:32:51;26.17;;;11.30;;
34433;SDS011;34290;48.562;13.384;2023-01-29T03:35:22;27.07;;;10.83;;
34433;SDS011;34290;48.562;13.384;2023-01-29T03:37:59;24.83;;;10.67;;
34433;SDS011;34290;48.562;13.384;2023-01-29T03:40:27;25.23;;;11.47;;
34433;SDS011;34290;48.562;13.384;2023-01-29T03:43:02;26.10;;;11.33;;
34433;SDS011;34290;48.562;13.384;2023-01-29T03:45:38;24.93;;;10.83;;
34433;SDS011;34290;48.562;13.384;2023-01-29T03:48:14;22.53;;;10.07;;
34433;SDS011;34290;48.562;13.384;2023-01-29T03:50:51;23.37;;;10.17;;
34433;SDS011;34290;48.562;13.384;2023-01-29T03:53:24;21.73;;;10.10;;
34433;SDS011;34290;48.562;13.384;2023-01-29T03:55:56;20.40;;;9.13;;
34433;SDS011;34290;48.562;13.384;2023-01-29T03:58:29;22.00;;;10.47;;
34433;SDS011;34290;48.562;13.384;2023-01-29T04:01:06;20.30;;;9.43;;
34433;SDS011;34290;48.562;13.384;2023-01-29T04:03:40;22.70;;;10.40;;
34433;SDS011;34290;48.562;13.384;2023-01-29T04:06:15;25.90;;;10.37;;
34433;SDS011;34290;48.562;13.384;2023-01-29T04:08:45;23.23;;;10.37;;
34433;SDS011;34290;48.562;13.384;2023-01-29T04:11:16;23.83;;;10.27;;
34433;SDS011;34290;48.562;13.384;2023-01-29T04:13:45;21.67;;;9.60;;
34433;SDS011;34290;48.562;13.384;2023-01-29T04:16:15;21.33;;;10.17;;
34433;SDS011;34290;48.562;13.384;2023-01-29T04:18:45;24.50;;;10.53;;
34433;SDS011;34290;48.562;13.384;2023-01-29T04:21:13;19.30;;;9.40;;
34433;SDS011;34290;48.562;13.384;2023-01-29T04:23:40;23.20;;;10.70;;
34433;SDS011;34290;48.562;13.384;2023-01-29T04:26:16;24.63;;;10.67;;
34433;SDS011;34290;48.562;13.384;2023-01-29T04:29:02;25.93;;;11.20;;
34433;SDS011;34290;48.562;13.384;2023-01-29T04:31:52;21.93;;;9.50;;
34433;SDS011;34290;48.562;13.384;2023-01-29T04:34:27;22.10;;;10.40;;
34433;SDS011;34290;48.562;13.384;2023-01-29T04:36:58;20.50;;;9.40;;
34433;SDS011;34290;48.562;13.384;2023-01-29T04:39:38;23.20;;;10.30;;
34433;SDS011;34290;48.562;13.384;2023-01-29T04:42:14;18.90;;;9.03;;
34433;SDS011;34290;48.562;13.384;2023-01-29T04:44:49;23.07;;;10.00;;
34433;SDS011;34290;48.562;13.384;2023-01-29T04:47:27;19.80;;;9.37;;
34433;SDS011;34290;48.562;13.384;2023-01-29T04:50:01;19.07;;;9.17;;
34433;SDS011;34290;48.562;13.384;2023-01-29T04:52:39;23.40;;;10.10;;
34433;SDS011;34290;48.562;13.384;2023-01-29T04:55:14;23.10;;;10.40;;
34433;SDS011;34290;48.562;13.384;2023-01-29T04:57:48;21.20;;;9.57;;
34433;SDS011;34290;48.562;13.384;2023-01-29T05:00:19;20.57;;;9.50;;
34433;SDS011;34290;48.562;13.384;2023-01-29T05:02:51;21.00;;;9.47;;
34433;SDS011;34290;48.562;13.384;2023-01-29T05:05:19;24.07;;;10.10;;
34433;SDS011;34290;48.562;13.384;2023-01-29T05:07:46;20.10;;;9.20;;
34433;SDS011;34290;48.562;13.384;2023-01-29T05:10:15;22.43;;;9.87;;
34433;SDS011;34290;48.562;13.384;2023-01-29T05:12:45;22.50;;;8.83;;
34433;SDS011;34290;48.562;13.384;2023-01-29T05:15:16;20.10;;;9.23;;
34433;SDS011;34290;48.562;13.384;2023-01-29T05:17:45;19.47;;;9.07;;
34433;SDS011;34290;48.562;13.384;2023-01-29T05:20:13;19.47;;;8.80;;
34433;SDS011;34290;48.562;13.384;2023-01-29T05:22:40;16.53;;;8.40;;
34433;SDS011;34290;48.562;13.384;2023-01-29T05:25:12;18.00;;;7.53;;
34433;SDS011;34290;48.562;13.384;2023-01-29T05:27:47;14.53;;;7.10;;
34433;SDS011;34290;48.562;13.384;2023-01-29T05:30:30;16.40;;;7.50;;
34433;SDS011;34290;48.562;13.384;2023-01-29T05:32:58;21.67;;;6.07;;
34433;SDS011;34290;48.562;13.384;2023-01-29T05:35:26;12.70;;;5.70;;
34433;SDS011;34290;48.562;13.384;2023-01-29T05:37:54;10.63;;;5.70;;
34433;SDS011;34290;48.562;13.384;2023-01-29T05:40:22;10.67;;;5.70;;
34433;SDS011;34290;48.562;13.384;2023-01-29T05:42:49;9.17;;;5.47;;
34433;SDS011;34290;48.562;13.384;2023-01-29T05:45:16;10.57;;;5.67;;
34433;SDS011;34290;48.562;13.384;2023-01-29T05:47:44;12.17;;;5.73;;
34433;SDS011;34290;48.562;13.384;2023-01-29T05:50:11;10.73;;;5.07;;
34433;SDS011;34290;48.562;13.384;2023-01-29T05:52:40;8.70;;;5.07;;
34433;SDS011;34290;48.562;13.384;2023-01-29T05:55:08;10.03;;;5.27;;
34433;SDS011;34290;48.562;13.384;2023-01-29T05:57:35;9.37;;;5.03;;
34433;SDS011;34290;48.562;13.384;2023-01-29T06:00:03;7.97;;;4.47;;
34433;SDS011;34290;48.562;13.384;2023-01-29T06:02:31;8.37;;;5.27;;
34433;SDS011;34290;48.562;13.384;2023-01-29T06:04:58;8.03;;;5.00;;
34433;SDS011;34290;48.562;13.384;2023-01-29T06:07:25;10.10;;;5.17;;
34433;SDS011;34290;48.562;13.384;2023-01-29T06:09:53;8.50;;;4.83;;
34433;SDS011;34290;48.562;13.384;2023-01-29T06:12:20;8.03;;;4.33;;
34433;SDS011;34290;48.562;13.384;2023-01-29T06:14:47;7.40;;;4.60;;
34433;SDS011;34290;48.562;13.384;2023-01-29T06:17:14;9.90;;;5.10;;
34433;SDS011;34290;48.562;13.384;2023-01-29T06:19:41;9.10;;;4.63;;
34433;SDS011;34290;48.562;13.384;2023-01-29T06:22:08;8.23;;;4.20;;
34433;SDS011;34290;48.562;13.384;2023-01-29T06:24:35;6.77;;;4.43;;
34433;SDS011;34290;48.562;13.384;2023-01-29T06:27:03;6.03;;;4.13;;
34433;SDS011;34290;48.562;13.384;2023-01-29T06:29:30;7.00;;;4.10;;
34433;SDS011;34290;48.562;13.384;2023-01-29T06:31:57;7.50;;;3.77;;
34433;SDS011;34290;48.562;13.384;2023-01-29T06:34:24;4.60;;;3.40;;
34433;SDS011;34290;48.562;13.384;2023-01-29T06:36:51;8.27;;;4.03;;
34433;SDS011;34290;48.562;13.384;2023-01-29T06:39:18;7.67;;;4.53;;
34433;SDS011;34290;48.562;13.384;2023-01-29T06:41:45;7.17;;;4.20;;
34433;SDS011;34290;48.562;13.384;2023-01-29T06:44:14;7.57;;;4.43;;
34433;SDS011;34290;48.562;13.384;2023-01-29T06:46:42;10.03;;;5.87;;
34433;SDS011;34290;48.562;13.384;2023-01-29T06:49:09;7.97;;;4.83;;
34433;SDS011;34290;48.562;13.384;2023-01-29T06:51:37;7.37;;;4.57;;
34433;SDS011;34290;48.562;13.384;2023-01-29T06:54:04;6.93;;;4.47;;
34433;SDS011;34290;48.562;13.384;2023-01-29T06:56:32;6.70;;;3.80;;
34433;SDS011;34290;48.562;13.384;2023-01-29T06:58:59;6.70;;;3.90;;
34433;SDS011;34290;48.562;13.384;2023-01-29T07:01:27;7.33;;;4.23;;
34433;SDS011;34290;48.562;13.384;2023-01-29T07:03:55;6.80;;;4.27;;
34433;SDS011;34290;48.562;13.384;2023-01-29T07:06:25;9.00;;;4.20;;
34433;SDS011;34290;48.562;13.384;2023-01-29T07:08:53;5.50;;;3.70;;
34433;SDS011;34290;48.562;13.384;2023-01-29T07:11:20;8.43;;;4.27;;
34433;SDS011;34290;48.562;13.384;2023-01-29T07:13:47;9.30;;;4.60;;
34433;SDS011;34290;48.562;13.384;2023-01-29T07:16:14;5.87;;;3.80;;
34433;SDS011;34290;48.562;13.384;2023-01-29T07:18:43;6.67;;;3.87;;
34433;SDS011;34290;48.562;13.384;2023-01-29T07:21:10;6.70;;;3.83;;
34433;SDS011;34290;48.562;13.384;2023-01-29T07:23:37;5.87;;;4.07;;
34433;SDS011;34290;48.562;13.384;2023-01-29T07:26:04;7.87;;;4.20;;
34433;SDS011;34290;48.562;13.384;2023-01-29T07:28:34;6.83;;;4.33;;
34433;SDS011;34290;48.562;13.384;2023-01-29T07:31:01;6.47;;;3.80;;
34433;SDS011;34290;48.562;13.384;2023-01-29T07:33:28;5.93;;;4.07;;
34433;SDS011;34290;48.562;13.384;2023-01-29T07:35:57;8.33;;;4.20;;
34433;SDS011;34290;48.562;13.384;2023-01-29T07:38:24;6.07;;;4.03;;
34433;SDS011;34290;48.562;13.384;2023-01-29T07:40:51;8.67;;;4.40;;
34433;SDS011;34290;48.562;13.384;2023-01-29T07:43:18;12.03;;;5.00;;
34433;SDS011;34290;48.562;13.384;2023-01-29T07:45:45;7.67;;;4.13;;
34433;SDS011;34290;48.562;13.384;2023-01-29T07:48:16;7.53;;;4.00;;
34433;SDS011;34290;48.562;13.384;2023-01-29T07:50:43;6.37;;;4.13;;
34433;SDS011;34290;48.562;13.384;2023-01-29T07:53:12;8.03;;;4.40;;
34433;SDS011;34290;48.562;13.384;2023-01-29T07:55:42;8.10;;;4.40;;
34433;SDS011;34290;48.562;13.384;2023-01-29T07:58:10;6.30;;;3.70;;
34433;SDS011;34290;48.562;13.384;2023-01-29T08:00:37;7.50;;;4.60;;
34433;SDS011;34290;48.562;13.384;2023-01-29T08:03:05;8.20;;;4.10;;
34433;SDS011;34290;48.562;13.384;2023-01-29T08:05:32;6.97;;;3.97;;
34433;SDS011;34290;48.562;13.384;2023-01-29T08:07:59;9.87;;;4.80;;
34433;SDS011;34290;48.562;13.384;2023-01-29T08:10:28;9.73;;;5.00;;
34433;SDS011;34290;48.562;13.384;2023-01-29T08:12:55;6.10;;;4.13;;
34433;SDS011;34290;48.562;13.384;2023-01-29T08:15:23;7.23;;;4.07;;
34433;SDS011;34290;48.562;13.384;2023-01-29T08:17:52;9.80;;;4.10;;
34433;SDS011;34290;48.562;13.384;2023-01-29T08:20:20;7.00;;;3.80;;
34433;SDS011;34290;48.562;13.384;2023-01-29T08:22:47;7.63;;;4.10;;
34433;SDS011;34290;48.562;13.384;2023-01-29T08:25:15;6.47;;;4.13;;
34433;SDS011;34290;48.562;13.384;2023-01-29T08:27:43;6.40;;;3.73;;
34433;SDS011;34290;48.562;13.384;2023-01-29T08:30:10;7.70;;;4.13;;
34433;SDS011;34290;48.562;13.384;2023-01-29T08:32:38;8.23;;;3.83;;
34433;SDS011;34290;48.562;13.384;2023-01-29T08:35:05;6.77;;;3.83;;
34433;SDS011;34290;48.562;13.384;2023-01-29T08:37:32;8.00;;;4.10;;
34433;SDS011;34290;48.562;13.384;2023-01-29T08:39:59;6.77;;;3.83;;
34433;SDS011;34290;48.562;13.384;2023-01-29T08:42:26;5.50;;;3.77;;
34433;SDS011;34290;48.562;13.384;2023-01-29T08:44:54;7.67;;;4.00;;
34433;SDS011;34290;48.562;13.384;2023-01-29T08:47:23;6.73;;;3.97;;
34433;SDS011;34290;48.562;13.384;2023-01-29T08:49:49;7.67;;;3.83;;
34433;SDS011;34290;48.562;13.384;2023-01-29T08:52:17;7.47;;;3.53;;
34433;SDS011;34290;48.562;13.384;2023-01-29T08:54:44;7.17;;;3.97;;
34433;SDS011;34290;48.562;13.384;2023-01-29T08:57:10;8.07;;;3.70;;
34433;SDS011;34290;48.562;13.384;2023-01-29T08:59:39;6.73;;;4.13;;
34433;SDS011;34290;48.562;13.384;2023-01-29T09:02:07;8.47;;;4.10;;
34433;SDS011;34290;48.562;13.384;2023-01-29T09:04:35;6.07;;;3.70;;
34433;SDS011;34290;48.562;13.384;2023-01-29T09:07:02;6.87;;;3.90;;
34433;SDS011;34290;48.562;13.384;2023-01-29T09:09:29;6.60;;;3.63;;
34433;SDS011;34290;48.562;13.384;2023-01-29T09:11:56;7.03;;;4.30;;
34433;SDS011;34290;48.562;13.384;2023-01-29T09:14:25;11.10;;;5.20;;
34433;SDS011;34290;48.562;13.384;2023-01-29T09:16:52;7.50;;;4.80;;
34433;SDS011;34290;48.562;13.384;2023-01-29T09:19:20;7.20;;;3.80;;
34433;SDS011;34290;48.562;13.384;2023-01-29T09:21:47;6.33;;;3.83;;
34433;SDS011;34290;48.562;13.384;2023-01-29T09:24:14;7.87;;;3.93;;
34433;SDS011;34290;48.562;13.384;2023-01-29T09:26:41;6.30;;;4.10;;
34433;SDS011;34290;48.562;13.384;2023-01-29T09:29:09;11.00;;;4.53;;
34433;SDS011;34290;48.562;13.384;2023-01-29T09:31:36;11.87;;;4.63;;
34433;SDS011;34290;48.562;13.384;2023-01-29T09:34:03;10.70;;;4.37;;
34433;SDS011;34290;48.562;13.384;2023-01-29T09:36:32;12.97;;;5.60;;
34433;SDS011;34290;48.562;13.384;2023-01-29T09:38:58;7.47;;;4.50;;
34433;SDS011;34290;48.562;13.384;2023-01-29T09:41:29;6.90;;;4.50;;
34433;SDS011;34290;48.562;13.384;2023-01-29T09:44:02;7.97;;;4.70;;
34433;SDS011;34290;48.562;13.384;2023-01-29T09:46:39;13.33;;;4.90;;
34433;SDS011;34290;48.562;13.384;2023-01-29T09:49:10;6.67;;;4.50;;
34433;SDS011;34290;48.562;13.384;2023-01-29T09:51:42;10.13;;;4.00;;
34433;SDS011;34290;48.562;13.384;2023-01-29T09:54:15;7.23;;;4.40;;
34433;SDS011;34290;48.562;13.384;2023-01-29T09:56:48;8.53;;;4.20;;
34433;SDS011;34290;48.562;13.384;2023-01-29T09:59:17;8.10;;;4.60;;
34433;SDS011;34290;48.562;13.384;2023-01-29T10:01:51;7.10;;;4.37;;
34433;SDS011;34290;48.562;13.384;2023-01-29T10:04:33;11.00;;;4.67;;
34433;SDS011;34290;48.562;13.384;2023-01-29T10:07:52;8.20;;;4.60;;
34433;SDS011;34290;48.562;13.384;2023-01-29T10:10:39;7.33;;;4.80;;
34433;SDS011;34290;48.562;13.384;2023-01-29T10:13:15;10.60;;;4.90;;
34433;SDS011;34290;48.562;13.384;2023-01-29T10:15:56;7.73;;;4.43;;
34433;SDS011;34290;48.562;13.384;2023-01-29T10:21:36;9.43;;;5.27;;
34433;SDS011;34290;48.562;13.384;2023-01-29T10:24:23;9.57;;;4.87;;
34433;SDS011;34290;48.562;13.384;2023-01-29T10:26:54;9.30;;;4.97;;
34433;SDS011;34290;48.562;13.384;2023-01-29T10:29:21;10.63;;;5.37;;
34433;SDS011;34290;48.562;13.384;2023-01-29T10:31:51;9.67;;;4.83;;
34433;SDS011;34290;48.562;13.384;2023-01-29T10:34:22;10.07;;;4.90;;
34433;SDS011;34290;48.562;13.384;2023-01-29T10:36:54;6.50;;;4.40;;
34433;SDS011;34290;48.562;13.384;2023-01-29T10:39:23;7.70;;;4.90;;
34433;SDS011;34290;48.562;13.384;2023-01-29T10:41:55;12.13;;;5.67;;
34433;SDS011;34290;48.562;13.384;2023-01-29T10:44:34;8.57;;;5.17;;
34433;SDS011;34290;48.562;13.384;2023-01-29T10:47:28;9.33;;;5.10;;
34433;SDS011;34290;48.562;13.384;2023-01-29T10:50:18;8.97;;;4.80;;
34433;SDS011;34290;48.562;13.384;2023-01-29T10:53:08;8.47;;;5.10;;
34433;SDS011;34290;48.562;13.384;2023-01-29T10:56:04;7.83;;;5.17;;
34433;SDS011;34290;48.562;13.384;2023-01-29T10:58:51;9.27;;;5.33;;
34433;SDS011;34290;48.562;13.384;2023-01-29T11:01:20;9.07;;;5.60;;
34433;SDS011;34290;48.562;13.384;2023-01-29T11:03:51;7.93;;;4.93;;
34433;SDS011;34290;48.562;13.384;2023-01-29T11:06:22;9.33;;;5.30;;
34433;SDS011;34290;48.562;13.384;2023-01-29T11:08:53;9.43;;;5.20;;
34433;SDS011;34290;48.562;13.384;2023-01-29T11:11:32;8.20;;;5.20;;
34433;SDS011;34290;48.562;13.384;2023-01-29T11:14:05;10.00;;;5.37;;
34433;SDS011;34290;48.562;13.384;2023-01-29T11:16:40;8.37;;;5.60;;
34433;SDS011;34290;48.562;13.384;2023-01-29T11:19:09;8.50;;;5.20;;
34433;SDS011;34290;48.562;13.384;2023-01-29T11:21:49;8.57;;;5.67;;
34433;SDS011;34290;48.562;13.384;2023-01-29T11:24:18;10.00;;;5.03;;
34433;SDS011;34290;48.562;13.384;2023-01-29T11:26:47;11.50;;;5.63;;
34433;SDS011;34290;48.562;13.384;2023-01-29T11:29:36;8.77;;;5.20;;
34433;SDS011;34290;48.562;13.384;2023-01-29T11:32:04;9.07;;;5.43;;
34433;SDS011;34290;48.562;13.384;2023-01-29T11:34:33;9.93;;;6.07;;
34433;SDS011;34290;48.562;13.384;2023-01-29T11:37:02;13.83;;;6.13;;
34433;SDS011;34290;48.562;13.384;2023-01-29T11:39:31;11.07;;;5.50;;
34433;SDS011;34290;48.562;13.384;2023-01-29T11:42:12;10.53;;;5.93;;
34433;SDS011;34290;48.562;13.384;2023-01-29T11:44:45;12.13;;;6.00;;
34433;SDS011;34290;48.562;13.384;2023-01-29T11:47:16;14.67;;;6.90;;
34433;SDS011;34290;48.562;13.384;2023-01-29T11:49:44;10.90;;;6.17;;
34433;SDS011;34290;48.562;13.384;2023-01-29T11:52:13;10.43;;;5.93;;
34433;SDS011;34290;48.562;13.384;2023-01-29T11:54:43;11.33;;;6.27;;
34433;SDS011;34290;48.562;13.384;2023-01-29T11:57:18;16.63;;;8.27;;
34433;SDS011;34290;48.562;13.384;2023-01-29T11:59:49;11.03;;;6.67;;
34433;SDS011;34290;48.562;13.384;2023-01-29T12:02:25;12.33;;;7.17;;
34433;SDS011;34290;48.562;13.384;2023-01-29T12:04:56;12.97;;;8.63;;
34433;SDS011;34290;48.562;13.384;2023-01-29T12:07:27;24.33;;;14.93;;
34433;SDS011;34290;48.562;13.384;2023-01-29T12:09:55;14.33;;;9.67;;
34433;SDS011;34290;48.562;13.384;2023-01-29T12:12:32;12.07;;;6.43;;
34433;SDS011;34290;48.562;13.384;2023-01-29T12:15:15;14.83;;;9.03;;
34433;SDS011;34290;48.562;13.384;2023-01-29T12:17:47;12.83;;;6.70;;
34433;SDS011;34290;48.562;13.384;2023-01-29T12:20:21;11.53;;;6.57;;
34433;SDS011;34290;48.562;13.384;2023-01-29T12:22:51;12.33;;;7.13;;
34433;SDS011;34290;48.562;13.384;2023-01-29T12:25:24;13.60;;;7.20;;
34433;SDS011;34290;48.562;13.384;2023-01-29T12:28:16;12.40;;;7.53;;
34433;SDS011;34290;48.562;13.384;2023-01-29T12:30:50;14.63;;;7.30;;
34433;SDS011;34290;48.562;13.384;2023-01-29T12:33:26;12.40;;;7.63;;
34433;SDS011;34290;48.562;13.384;2023-01-29T12:36:04;11.40;;;6.53;;
34433;SDS011;34290;48.562;13.384;2023-01-29T12:38:36;11.10;;;6.77;;
34433;SDS011;34290;48.562;13.384;2023-01-29T12:41:06;14.03;;;8.17;;
34433;SDS011;34290;48.562;13.384;2023-01-29T12:43:39;42.90;;;12.70;;
34433;SDS011;34290;48.562;13.384;2023-01-29T12:46:12;36.57;;;13.07;;
34433;SDS011;34290;48.562;13.384;2023-01-29T12:48:46;21.73;;;9.80;;
34433;SDS011;34290;48.562;13.384;2023-01-29T12:51:16;16.00;;;8.30;;
34433;SDS011;34290;48.562;13.384;2023-01-29T12:53:47;14.90;;;7.57;;
34433;SDS011;34290;48.562;13.384;2023-01-29T12:56:18;14.10;;;7.67;;
34433;SDS011;34290;48.562;13.384;2023-01-29T12:58:53;11.83;;;7.20;;
34433;SDS011;34290;48.562;13.384;2023-01-29T13:01:25;14.80;;;6.93;;
34433;SDS011;34290;48.562;13.384;2023-01-29T13:03:57;14.07;;;7.83;;
34433;SDS011;34290;48.562;13.384;2023-01-29T13:06:28;13.77;;;7.80;;
34433;SDS011;34290;48.562;13.384;2023-01-29T13:09:00;13.03;;;7.47;;
34433;SDS011;34290;48.562;13.384;2023-01-29T13:11:36;15.83;;;7.30;;
34433;SDS011;34290;48.562;13.384;2023-01-29T13:14:11;14.73;;;7.23;;
34433;SDS011;34290;48.562;13.384;2023-01-29T13:16:44;14.77;;;7.40;;
34433;SDS011;34290;48.562;13.384;2023-01-29T13:19:16;13.87;;;7.20;;
34433;SDS011;34290;48.562;13.384;2023-01-29T13:21:49;12.97;;;7.97;;
34433;SDS011;34290;48.562;13.384;2023-01-29T13:24:20;12.30;;;7.17;;
34433;SDS011;34290;48.562;13.384;2023-01-29T13:26:50;24.17;;;11.23;;
34433;SDS011;34290;48.562;13.384;2023-01-29T13:29:22;15.97;;;8.13;;
34433;SDS011;34290;48.562;13.384;2023-01-29T13:31:50;14.90;;;8.33;;
34433;SDS011;34290;48.562;13.384;2023-01-29T13:34:20;13.73;;;7.50;;
34433;SDS011;34290;48.562;13.384;2023-01-29T13:36:51;15.70;;;7.83;;
34433;SDS011;34290;48.562;13.384;2023-01-29T13:39:22;15.20;;;8.33;;
34433;SDS011;34290;48.562;13.384;2023-01-29T13:41:54;16.57;;;7.60;;
34433;SDS011;34290;48.562;13.384;2023-01-29T13:44:27;13.70;;;7.47;;
34433;SDS011;34290;48.562;13.384;2023-01-29T13:46:57;12.50;;;7.20;;
34433;SDS011;34290;48.562;13.384;2023-01-29T13:49:28;12.70;;;7.07;;
34433;SDS011;34290;48.562;13.384;2023-01-29T13:51:58;14.50;;;7.80;;
34433;SDS011;34290;48.562;13.384;2023-01-29T13:54:47;13.17;;;7.43;;
34433;SDS011;34290;48.562;13.384;2023-01-29T13:57:32;10.77;;;6.40;;
34433;SDS011;34290;48.562;13.384;2023-01-29T14:12:34;12.70;;;7.23;;
34433;SDS011;34290;48.562;13.384;2023-01-29T14:15:15;16.57;;;7.70;;
34433;SDS011;34290;48.562;13.384;2023-01-29T14:18:13;15.27;;;7.13;;
34433;SDS011;34290;48.562;13.384;2023-01-29T14:20:54;14.63;;;7.80;;
34433;SDS011;34290;48.562;13.384;2023-01-29T14:23:28;13.50;;;6.93;;
34433;SDS011;34290;48.562;13.384;2023-01-29T14:25:58;25.87;;;13.00;;
34433;SDS011;34290;48.562;13.384;2023-01-29T14:28:29;33.90;;;13.07;;
34433;SDS011;34290;48.562;13.384;2023-01-29T14:30:58;11.90;;;5.67;;
34433;SDS011;34290;48.562;13.384;2023-01-29T14:33:26;13.23;;;6.90;;
34433;SDS011;34290;48.562;13.384;2023-01-29T14:36:02;11.70;;;5.43;;
34433;SDS011;34290;48.562;13.384;2023-01-29T14:38:31;12.57;;;5.50;;
34433;SDS011;34290;48.562;13.384;2023-01-29T14:41:14;12.57;;;6.67;;
34433;SDS011;34290;48.562;13.384;2023-01-29T14:43:47;13.27;;;6.67;;
34433;SDS011;34290;48.562;13.384;2023-01-29T14:49:09;12.53;;;7.37;;
34433;SDS011;34290;48.562;13.384;2023-01-29T14:51:38;14.00;;;7.40;;
34433;SDS011;34290;48.562;13.384;2023-01-29T14:54:14;13.20;;;6.97;;
34433;SDS011;34290;48.562;13.384;2023-01-29T14:56:50;14.73;;;7.37;;
34433;SDS011;34290;48.562;13.384;2023-01-29T14:59:25;13.67;;;6.60;;
34433;SDS011;34290;48.562;13.384;2023-01-29T15:01:59;12.90;;;6.87;;
34433;SDS011;34290;48.562;13.384;2023-01-29T15:04:37;11.43;;;6.73;;
34433;SDS011;34290;48.562;13.384;2023-01-29T15:07:13;14.50;;;7.67;;